Погода Верхнесоленыйна 2 недели

Ростовская область, Россия

14 - 27 июля
  • 14июля
    Сегодня
    +19°
    +34°
    Ясно и безоблачно
    ВремяПогодаТемператураВлажностьДавлениеВетер, м/сВероятность осадков
    00:00Ясно и безоблачно+21°C41 %757 мм2.2 м/с2 %
    03:00Ясно и безоблачно+19°C46 %757 мм2.1 м/с2 %
    06:00Ясно и безоблачно+20°C45 %758 мм2.6 м/с2 %
    09:00Ясно и безоблачно+28°C27 %758 мм4.1 м/с2 %
    12:00Ясно и безоблачно+31°C18 %757 мм4.6 м/с2 %
    15:00Ясно и безоблачно+34°C14 %756 мм4.2 м/с2 %
    18:00Ясно и безоблачно+33°C15 %756 мм4.1 м/с2 %
    21:00Ясно и безоблачно+25°C30 %756 мм2.4 м/с2 %
  • 15июля
    Понедельник
    +22°
    +37°
    Ясно и безоблачно
    ВремяПогодаТемператураВлажностьДавлениеВетер, м/сВероятность осадков
    00:00Ясно и безоблачно+22°C41 %756 мм2.1 м/с2 %
    03:00Ясно и безоблачно+21°C50 %757 мм2.1 м/с2 %
    06:00Небольшая облачность+22°C48 %757 мм2.5 м/с2 %
    09:00Практически безоблачно+29°C27 %757 мм2.8 м/с2 %
    12:00Ясно и безоблачно+34°C22 %756 мм3.9 м/с2 %
    15:00Ясно и безоблачно+37°C18 %755 мм4.1 м/с2 %
    18:00Ясно и безоблачно+35°C18 %755 мм4.3 м/с2 %
    21:00Ясно и безоблачно+29°C27 %756 мм2.7 м/с2 %
  • 16июля
    Вторник
    +25°
    +39°
    Практически безоблачно
    ВремяПогодаТемператураВлажностьДавлениеВетер, м/сВероятность осадков
    00:00Ясно и безоблачно+25°C39 %756 мм2.4 м/с2 %
    03:00Ясно и безоблачно+23°C48 %756 мм2.4 м/с2 %
    06:00Ясно и безоблачно+25°C49 %756 мм1.2 м/с2 %
    09:00Ясно и безоблачно+33°C28 %757 мм1.6 м/с2 %
    12:00Ясно и безоблачно+37°C24 %756 мм1.7 м/с2 %
    15:00Практически безоблачно+38°C23 %755 мм3.7 м/с2 %
    18:00Ясно и безоблачно+37°C24 %755 мм3.2 м/с2 %
    21:00Ясно и безоблачно+32°C33 %756 мм2.9 м/с2 %
  • 17июля
    Среда
    +23°
    +39°
    Практически безоблачно
    ВремяПогодаТемператураВлажностьДавлениеВетер, м/сВероятность осадков
    00:00Ясно и безоблачно+28°C45 %756 мм2.0 м/с2 %
    03:00Ясно и безоблачно+27°C47 %756 мм3.3 м/с2 %
    06:00Ясно и безоблачно+26°C53 %756 мм2.9 м/с2 %
    09:00Ясно и безоблачно+33°C34 %757 мм3.3 м/с2 %
    12:00Ясно и безоблачно+37°C22 %756 мм3.2 м/с2 %
    15:00Практически безоблачно+38°C19 %756 мм2.0 м/с2 %
    18:00Небольшая облачность+38°C18 %755 мм1.5 м/с2 %
    21:00Ясно и безоблачно+32°C28 %756 мм3.7 м/с2 %
  • 18июля
    Четверг
    +25°
    +39°
    Ясно и безоблачно
    ВремяПогодаТемператураВлажностьДавлениеВетер, м/сВероятность осадков
    00:00Практически безоблачно+28°C37 %756 мм2.1 м/с2 %
    03:00Ясно и безоблачно+25°C48 %756 мм1.7 м/с2 %
    06:00Ясно и безоблачно+25°C52 %756 мм1.0 м/с2 %
    09:00Ясно и безоблачно+33°C30 %756 мм1.3 м/с2 %
    12:00Ясно и безоблачно+37°C20 %756 мм2.0 м/с2 %
    15:00Ясно и безоблачно+39°C18 %754 мм3.2 м/с2 %
    18:00Практически безоблачно+39°C18 %754 мм2.6 м/с2 %
    21:00Ясно и безоблачно+32°C26 %754 мм3.8 м/с2 %
Мы используем cookies
Соглашаюсь